Time;durP1;ratioP1;P1;durP2;ratioP2;P2;SDS_P1;SDS_P2;PMS_P1;PMS_P2;Temp;Humidity;BMP_temperature;BMP_pressure;BME280_temperature;BME280_humidity;BME280_pressure;Samples;Min_cycle;Max_cycle;Signal;HPM_P1;HPM_P2
2022/12/11 00:02:27;;;;;;;40.60;19.70;;;;;;;0.52;84.35;99282.16;126432;1283;99441;-75
2022/12/11 00:05:29;;;;;;;43.50;20.70;;;;;;;0.53;84.34;99274.63;126432;1284;99413;-71
2022/12/11 00:08:32;;;;;;;42.20;21.70;;;;;;;0.48;84.12;99269.89;126493;1285;99416;-72
2022/12/11 00:11:34;;;;;;;42.70;21.20;;;;;;;0.40;84.11;99259.11;126574;1289;99341;-72
2022/12/11 00:14:38;;;;;;;40.90;18.50;;;;;;;0.35;84.29;99259.11;126363;1290;99394;-72
2022/12/11 00:17:41;;;;;;;66.80;32.70;;;;;;;0.28;84.40;99258.73;126497;1284;99405;-72
2022/12/11 00:20:43;;;;;;;43.10;21.50;;;;;;;0.16;84.45;99261.71;126502;1285;100496;-73
2022/12/11 00:23:46;;;;;;;47.10;21.80;;;;;;;0.14;84.62;99260.69;126434;1289;100525;-72
2022/12/11 00:26:48;;;;;;;37.10;16.70;;;;;;;0.10;84.64;99263.04;126302;1288;99368;-74
2022/12/11 00:29:51;;;;;;;43.80;20.50;;;;;;;0.12;84.62;99265.31;126469;1286;99398;-72
2022/12/11 00:33:13;;;;;;;37.30;18.00;;;;;;;0.15;84.61;99274.70;126405;1284;99870;-70
2022/12/11 00:36:19;;;;;;;40.70;21.10;;;;;;;0.18;84.58;99272.46;126133;1284;100494;-71
2022/12/11 00:39:21;;;;;;;44.00;22.10;;;;;;;0.14;84.44;99273.09;126270;1294;100535;-70
2022/12/11 00:42:24;;;;;;;39.40;19.60;;;;;;;0.09;84.56;99271.86;126131;1292;99349;-70
2022/12/11 00:45:27;;;;;;;44.50;21.60;;;;;;;0.02;84.52;99268.15;126133;1285;99407;-73
2022/12/11 00:48:30;;;;;;;36.40;17.60;;;;;;;-0.03;84.60;99262.75;126290;1290;100509;-73
2022/12/11 00:51:32;;;;;;;42.40;20.80;;;;;;;-0.05;84.70;99263.61;126183;1285;99697;-70
2022/12/11 00:54:35;;;;;;;38.90;18.30;;;;;;;-0.01;84.74;99271.33;126271;1285;99350;-68
2022/12/11 00:57:38;;;;;;;42.70;20.90;;;;;;;0.09;84.78;99273.93;126463;1278;100523;-72
2022/12/11 01:00:42;;;;;;;33.20;17.70;;;;;;;0.11;84.58;99270.80;126398;1283;100341;-71
2022/12/11 01:03:45;;;;;;;41.00;19.70;;;;;;;0.16;84.45;99272.56;126253;1295;100608;-71
2022/12/11 01:06:47;;;;;;;34.70;17.80;;;;;;;0.14;84.42;99269.42;126456;1285;99423;-74
2022/12/11 01:13:11;;;;;;;36.00;19.50;;;;;;;0.10;84.40;99264.05;126451;1282;99430;-72
2022/12/11 01:16:15;;;;;;;36.90;19.30;;;;;;;0.03;84.37;99263.73;126208;1294;99318;-72
2022/12/11 01:19:17;;;;;;;44.10;19.60;;;;;;;0.02;84.59;99257.20;126449;1286;99892;-73
2022/12/11 01:22:20;;;;;;;43.40;18.40;;;;;;;0.05;84.69;99251.50;126407;1290;99370;-74
2022/12/11 01:25:24;;;;;;;35.50;17.20;;;;;;;0.13;84.56;99247.64;125410;1294;1256492;-73
2022/12/11 01:28:26;;;;;;;33.50;15.80;;;;;;;0.21;84.43;99246.52;126306;1294;100002;-73
2022/12/11 01:31:29;;;;;;;36.80;18.20;;;;;;;0.27;84.43;99234.48;126431;1290;99421;-71
2022/12/11 01:34:32;;;;;;;32.80;16.80;;;;;;;0.31;84.01;99229.30;126189;1285;99363;-71
2022/12/11 01:37:35;;;;;;;35.90;17.50;;;;;;;0.27;83.89;99227.71;126192;1285;99418;-73
2022/12/11 01:40:37;;;;;;;37.40;19.10;;;;;;;0.19;84.02;99221.45;126248;1285;100483;-72
2022/12/11 01:44:00;;;;;;;36.40;18.50;;;;;;;0.19;83.88;99212.58;126169;1285;99377;-71
2022/12/11 01:47:02;;;;;;;37.60;18.50;;;;;;;0.15;84.02;99210.05;126230;1291;99383;-71
2022/12/11 01:50:07;;;;;;;36.50;17.90;;;;;;;0.15;84.18;99216.68;126148;1284;99798;-70
2022/12/11 01:53:14;;;;;;;33.30;17.40;;;;;;;0.10;84.03;99218.30;126305;1296;99401;-73
2022/12/11 01:56:18;;;;;;;42.60;18.20;;;;;;;0.02;84.08;99217.79;126226;1300;99664;-71
2022/12/11 01:59:25;;;;;;;41.70;19.70;;;;;;;-0.11;84.09;99207.17;126342;1292;100516;-73
2022/12/11 02:02:30;;;;;;;35.00;16.60;;;;;;;-0.17;84.45;99202.56;126272;1302;99356;-73
2022/12/11 02:05:33;;;;;;;41.20;19.90;;;;;;;-0.14;84.39;99204.11;126361;1302;100389;-74
2022/12/11 02:08:35;;;;;;;38.50;19.50;;;;;;;-0.19;84.40;99199.71;126362;1293;99366;-73
2022/12/11 02:11:54;;;;;;;39.60;19.60;;;;;;;-0.20;84.49;99206.09;126370;1290;100511;-72
2022/12/11 02:15:04;;;;;;;34.60;18.30;;;;;;;-0.25;84.47;99201.41;126261;1300;101194;-72
2022/12/11 02:18:18;;;;;;;33.10;17.30;;;;;;;-0.32;84.35;99201.36;126383;1284;99359;-72
2022/12/11 02:21:25;;;;;;;34.90;17.50;;;;;;;-0.36;84.50;99194.29;126361;1284;99317;-71
2022/12/11 02:24:43;;;;;;;38.60;19.20;;;;;;;-0.35;84.37;99189.02;126342;1296;99438;-71
2022/12/11 02:27:55;;;;;;;35.50;17.60;;;;;;;-0.38;84.45;99186.63;126295;1296;99956;-73
2022/12/11 02:31:03;;;;;;;38.40;19.30;;;;;;;-0.45;84.41;99178.19;126476;1294;99850;-74
2022/12/11 02:34:12;;;;;;;37.50;18.50;;;;;;;-0.51;84.52;99176.17;126657;1277;99394;-71
2022/12/11 02:37:20;;;;;;;36.10;18.00;;;;;;;-0.53;84.79;99173.66;126309;1297;99690;-72
2022/12/11 02:40:27;;;;;;;33.60;17.00;;;;;;;-0.52;84.74;99171.86;126273;1292;100476;-72
2022/12/11 02:43:33;;;;;;;33.10;19.00;;;;;;;-0.46;84.67;99174.94;126208;1296;100483;-70
2022/12/11 02:46:36;;;;;;;30.40;15.60;;;;;;;-0.44;84.50;99173.52;126319;1285;99363;-71
2022/12/11 02:49:41;;;;;;;33.20;16.70;;;;;;;-0.42;84.44;99170.63;126146;1289;99441;-72
2022/12/11 02:52:46;;;;;;;32.20;17.20;;;;;;;-0.43;84.25;99168.10;126142;1286;99372;-70
2022/12/11 02:55:52;;;;;;;31.10;14.50;;;;;;;-0.50;84.26;99173.14;126113;1285;99875;-70
2022/12/11 02:58:59;;;;;;;33.10;18.30;;;;;;;-0.51;84.15;99175.31;126109;1283;99321;-72
2022/12/11 03:02:02;;;;;;;29.20;16.00;;;;;;;-0.47;84.33;99177.64;126303;1290;99423;-71
2022/12/11 03:05:07;;;;;;;39.50;19.70;;;;;;;-0.47;84.15;99176.23;126158;1293;99703;-71
2022/12/11 03:08:10;;;;;;;33.80;17.90;;;;;;;-0.46;84.01;99179.11;126330;1296;99488;-73
2022/12/11 03:11:13;;;;;;;36.10;18.20;;;;;;;-0.46;84.00;99180.54;126429;1293;99365;-72
2022/12/11 03:14:15;;;;;;;30.80;16.10;;;;;;;-0.54;83.76;99179.16;126345;1290;100397;-73
2022/12/11 03:17:21;;;;;;;39.60;19.80;;;;;;;-0.64;84.05;99180.94;126256;1299;99846;-73
2022/12/11 03:20:34;;;;;;;35.40;17.10;;;;;;;-0.74;84.32;99184.30;126278;1284;99434;-73
2022/12/11 03:23:42;;;;;;;34.00;14.70;;;;;;;-0.80;84.26;99183.27;126120;1299;99355;-71
2022/12/11 03:27:18;;;;;;;33.00;16.50;;;;;;;-0.78;84.28;99179.10;126240;1295;99331;-71
2022/12/11 03:30:23;;;;;;;34.50;17.50;;;;;;;-0.72;84.24;99174.50;126123;1296;100534;-71
2022/12/11 03:33:49;;;;;;;32.20;16.30;;;;;;;-0.76;84.13;99179.49;126333;1302;100499;-72
2022/12/11 03:36:54;;;;;;;30.10;15.30;;;;;;;-0.78;84.21;99180.14;126286;1293;99460;-72
2022/12/11 03:40:03;;;;;;;32.20;16.90;;;;;;;-0.79;84.19;99176.23;126708;1286;99279;-71
2022/12/11 03:43:07;;;;;;;31.40;16.10;;;;;;;-0.75;84.16;99170.36;126189;1293;100528;-73
2022/12/11 03:46:12;;;;;;;28.90;15.20;;;;;;;-0.84;83.92;99170.05;126268;1291;99367;-73
2022/12/11 03:49:19;;;;;;;32.80;15.20;;;;;;;-0.91;84.34;99172.35;126107;1289;99467;-71
2022/12/11 03:52:26;;;;;;;36.20;16.20;;;;;;;-0.94;84.19;99172.02;126215;1293;100376;-75
2022/12/11 03:55:32;;;;;;;32.10;15.40;;;;;;;-0.95;84.42;99170.16;126245;1299;100525;-73
2022/12/11 03:58:34;;;;;;;26.50;13.40;;;;;;;-0.95;84.35;99167.37;126368;1284;100493;-72
2022/12/11 04:01:37;;;;;;;30.80;14.00;;;;;;;-1.00;84.21;99172.78;126295;1287;99683;-70
2022/12/11 04:04:41;;;;;;;28.40;13.60;;;;;;;-1.01;84.52;99167.59;126146;1284;99792;-71
2022/12/11 04:07:44;;;;;;;31.90;15.10;;;;;;;-0.99;84.56;99171.52;126290;1301;99440;-73
2022/12/11 04:10:46;;;;;;;33.70;14.00;;;;;;;-0.97;84.48;99168.60;126299;1283;99342;-73
2022/12/11 04:15:00;;;;;;;34.20;15.60;;;;;;;-0.94;84.54;99170.31;126307;1285;100448;-70
2022/12/11 04:24:13;;;;;;;30.60;14.60;;;;;;;-0.98;84.41;99170.71;126265;1289;99404;-70
2022/12/11 04:24:14;;;;;;;29.70;14.00;;;;;;;-1.06;84.87;99169.36;126322;1293;100458;-72
2022/12/11 04:27:47;;;;;;;29.00;14.30;;;;;;;-1.07;84.89;99168.19;126350;1291;99445;-71
2022/12/11 04:30:40;;;;;;;30.50;14.40;;;;;;;-1.06;84.78;99169.90;126300;1285;99456;-73
2022/12/11 04:33:43;;;;;;;37.50;16.20;;;;;;;-1.06;85.00;99168.33;126259;1298;100493;-71
2022/12/11 04:36:45;;;;;;;33.80;15.50;;;;;;;-1.07;84.99;99172.75;126112;1289;100497;-70
2022/12/11 04:39:49;;;;;;;28.70;14.30;;;;;;;-1.02;84.96;99170.63;126166;1287;100055;-73
2022/12/11 04:42:51;;;;;;;27.70;13.30;;;;;;;-0.93;84.86;99168.50;126345;1284;99419;-73
2022/12/11 04:46:02;;;;;;;29.80;14.00;;;;;;;-0.89;84.73;99166.40;126138;1285;100500;-70
2022/12/11 04:49:04;;;;;;;31.60;14.40;;;;;;;-0.88;84.56;99166.86;126224;1284;99662;-73
2022/12/11 04:52:07;;;;;;;29.30;15.00;;;;;;;-0.86;84.78;99166.91;126262;1290;100997;-71
2022/12/11 04:55:11;;;;;;;34.90;16.30;;;;;;;-0.82;84.72;99159.45;126092;1285;100014;-71
2022/12/11 04:58:13;;;;;;;39.20;18.20;;;;;;;-0.80;84.54;99153.58;126286;1290;99360;-73
2022/12/11 05:01:18;;;;;;;41.70;19.00;;;;;;;-0.89;84.92;99146.90;126336;1293;100495;-73
2022/12/11 05:04:21;;;;;;;44.40;20.30;;;;;;;-1.00;84.98;99146.23;126349;1292;100500;-72
2022/12/11 05:07:23;;;;;;;43.70;19.00;;;;;;;-1.05;85.58;99139.59;126268;1290;99866;-73
2022/12/11 05:10:26;;;;;;;38.40;17.60;;;;;;;-1.07;85.79;99135.73;126335;1284;100493;-74
2022/12/11 05:13:29;;;;;;;45.60;19.90;;;;;;;-1.13;85.91;99132.50;126520;1300;99413;-73
2022/12/11 05:16:32;;;;;;;41.70;18.30;;;;;;;-1.17;86.08;99137.47;126270;1293;99361;-73
2022/12/11 05:19:34;;;;;;;41.10;18.60;;;;;;;-1.22;86.11;99131.14;126340;1293;99381;-73
2022/12/11 05:22:37;;;;;;;35.70;16.80;;;;;;;-1.23;86.02;99132.10;126215;1285;99337;-73
2022/12/11 05:25:40;;;;;;;43.10;17.80;;;;;;;-1.27;86.06;99126.64;126213;1285;99376;-71
2022/12/11 05:28:43;;;;;;;38.90;17.00;;;;;;;-1.38;86.07;99121.11;126343;1283;99317;-72
2022/12/11 05:31:46;;;;;;;32.10;14.50;;;;;;;-1.36;86.20;99116.80;126306;1293;112535;-72
2022/12/11 05:34:50;;;;;;;32.70;14.80;;;;;;;-1.31;86.31;99112.98;126273;1293;100835;-72
2022/12/11 05:37:52;;;;;;;37.70;16.30;;;;;;;-1.29;85.97;99109.17;126219;1292;113051;-71
2022/12/11 05:40:59;;;;;;;40.40;17.20;;;;;;;-1.29;86.17;99105.68;126113;1289;100005;-72
2022/12/11 05:44:01;;;;;;;38.00;17.10;;;;;;;-1.34;86.31;99103.98;126285;1292;113753;-71
2022/12/11 05:47:04;;;;;;;35.80;16.50;;;;;;;-1.42;86.41;99100.69;126307;1294;101353;-71
2022/12/11 05:50:09;;;;;;;32.80;15.30;;;;;;;-1.43;86.69;99098.13;126290;1289;100493;-72
2022/12/11 05:53:12;;;;;;;37.00;16.10;;;;;;;-1.44;86.41;99101.81;126403;1290;112474;-73
2022/12/11 05:56:18;;;;;;;36.40;16.10;;;;;;;-1.49;86.68;99099.94;126250;1287;99773;-72
2022/12/11 05:59:20;;;;;;;36.80;15.20;;;;;;;-1.55;86.71;99098.02;126443;1302;112641;-72
2022/12/11 06:02:23;;;;;;;31.00;13.40;;;;;;;-1.61;86.77;99094.75;126405;1277;99605;-72
2022/12/11 06:05:26;;;;;;;30.00;13.70;;;;;;;-1.62;86.86;99092.77;126240;1293;99962;-73
2022/12/11 06:08:28;;;;;;;31.70;13.40;;;;;;;-1.65;87.14;99092.98;126088;1277;99832;-72
2022/12/11 06:11:32;;;;;;;27.40;13.50;;;;;;;-1.65;87.30;99095.42;126303;1293;99817;-72
2022/12/11 06:14:35;;;;;;;31.90;13.90;;;;;;;-1.65;86.86;99093.96;126320;1294;99332;-72
2022/12/11 06:17:37;;;;;;;30.40;14.10;;;;;;;-1.70;87.02;99097.17;126233;1283;99346;-72
2022/12/11 06:20:40;;;;;;;24.30;11.60;;;;;;;-1.82;87.56;99090.77;126270;1284;99438;-72
2022/12/11 06:23:44;;;;;;;22.80;10.90;;;;;;;-1.84;87.14;99090.80;126358;1292;99548;-72
2022/12/11 06:26:47;;;;;;;23.90;12.00;;;;;;;-1.82;87.11;99092.69;126342;1294;99347;-72
2022/12/11 06:29:49;;;;;;;22.40;11.10;;;;;;;-1.79;86.76;99094.94;126090;1284;99392;-71
2022/12/11 06:32:52;;;;;;;25.70;12.60;;;;;;;-1.74;86.79;99099.36;126072;1292;99368;-71
2022/12/11 06:35:55;;;;;;;25.10;12.10;;;;;;;-1.80;87.12;99101.48;126191;1284;99360;-73
2022/12/11 06:38:58;;;;;;;29.40;12.20;;;;;;;-1.90;87.08;99102.67;126363;1285;99860;-76
2022/12/11 06:42:00;;;;;;;27.20;12.50;;;;;;;-1.97;87.38;99103.14;126255;1285;99324;-74
2022/12/11 06:45:04;;;;;;;24.60;11.80;;;;;;;-1.99;87.31;99102.70;126229;1288;99806;-75
2022/12/11 06:48:07;;;;;;;22.30;11.60;;;;;;;-1.96;87.72;99099.91;126290;1293;107116;-76
2022/12/11 06:51:12;;;;;;;22.60;11.80;;;;;;;-1.95;87.28;99101.27;126480;1278;99528;-75
2022/12/11 06:54:14;;;;;;;21.20;10.40;;;;;;;-1.99;86.76;99106.88;126407;1286;108847;-77
2022/12/11 06:57:18;;;;;;;26.70;11.60;;;;;;;-1.99;87.15;99103.92;126288;1285;99372;-76
2022/12/11 07:00:21;;;;;;;22.00;10.30;;;;;;;-2.00;86.71;99100.20;126321;1290;108993;-75
2022/12/11 07:03:23;;;;;;;21.10;10.40;;;;;;;-2.06;86.77;99087.35;126387;1285;99342;-78
2022/12/11 07:06:27;;;;;;;22.80;11.00;;;;;;;-2.10;86.73;99091.42;126410;1290;99337;-76
2022/12/11 07:09:30;;;;;;;21.60;10.20;;;;;;;-2.08;86.95;99093.23;126487;1290;109506;-76
2022/12/11 07:12:32;;;;;;;20.20;9.60;;;;;;;-2.13;87.30;99094.27;126396;1284;99807;-76
2022/12/11 07:15:35;;;;;;;20.80;9.80;;;;;;;-2.18;87.41;99091.23;126462;1286;99341;-77
2022/12/11 07:18:39;;;;;;;22.20;10.70;;;;;;;-2.15;87.81;99090.73;126478;1291;99346;-77
2022/12/11 07:21:41;;;;;;;22.70;11.20;;;;;;;-2.14;87.77;99090.66;126676;1290;99359;-77
2022/12/11 07:24:44;;;;;;;30.60;12.60;;;;;;;-2.15;87.79;99092.65;126355;1294;99455;-77
2022/12/11 07:27:47;;;;;;;22.40;10.80;;;;;;;-2.19;87.64;99089.92;126366;1277;99375;-76
2022/12/11 07:30:50;;;;;;;24.50;10.70;;;;;;;-2.20;87.38;99089.27;126234;1287;99360;-77
2022/12/11 07:33:54;;;;;;;29.00;12.70;;;;;;;-2.16;87.69;99084.52;126363;1285;99355;-75
2022/12/11 07:36:57;;;;;;;29.90;13.90;;;;;;;-2.07;87.38;99080.41;126330;1294;107304;-77
2022/12/11 07:39:59;;;;;;;32.00;15.00;;;;;;;-2.05;87.42;99073.68;126249;1290;99360;-74
2022/12/11 07:43:02;;;;;;;36.50;16.50;;;;;;;-2.02;87.20;99074.70;126225;1293;100042;-77
2022/12/11 07:46:07;;;;;;;30.80;14.90;;;;;;;-2.06;87.49;99078.09;126225;1285;99357;-77
2022/12/11 07:49:09;;;;;;;38.00;17.10;;;;;;;-2.09;87.12;99076.03;126381;1285;107508;-76
2022/12/11 07:52:12;;;;;;;34.60;15.50;;;;;;;-2.12;87.08;99078.16;126327;1285;99354;-75
2022/12/11 07:55:15;;;;;;;31.90;15.70;;;;;;;-2.13;87.31;99077.70;126290;1284;99694;-75
2022/12/11 07:58:18;;;;;;;28.50;14.70;;;;;;;-2.17;86.99;99082.30;126322;1294;100468;-75
2022/12/11 08:01:23;;;;;;;36.60;15.60;;;;;;;-2.15;86.93;99082.51;126312;1291;99332;-72
2022/12/11 08:04:25;;;;;;;43.70;22.60;;;;;;;-2.11;87.00;99079.52;126321;1286;107644;-77
2022/12/11 08:07:28;;;;;;;39.90;21.50;;;;;;;-2.12;86.79;99074.16;126346;1285;99358;-76
2022/12/11 08:10:30;;;;;;;42.40;21.60;;;;;;;-2.11;87.04;99070.42;126430;1293;99330;-76
2022/12/11 08:13:33;;;;;;;72.80;37.60;;;;;;;-2.14;86.80;99073.05;126363;1283;99347;-74
2022/12/11 08:16:36;;;;;;;41.20;20.00;;;;;;;-2.13;86.89;99068.64;126308;1276;101431;-76
2022/12/11 08:19:39;;;;;;;41.50;21.70;;;;;;;-2.08;87.04;99071.63;126467;1293;99313;-75
2022/12/11 08:22:41;;;;;;;32.80;16.70;;;;;;;-2.05;86.41;99069.50;126371;1287;99711;-75
2022/12/11 08:25:44;;;;;;;37.00;20.40;;;;;;;-2.03;86.59;99069.73;126275;1292;100488;-76
2022/12/11 08:28:47;;;;;;;41.10;23.40;;;;;;;-1.99;86.76;99065.93;126680;1283;99869;-76
2022/12/11 08:31:49;;;;;;;310.70;124.80;;;;;;;-1.96;86.63;99062.08;126547;1284;100492;-76
2022/12/11 08:34:52;;;;;;;113.20;48.60;;;;;;;-1.93;86.57;99062.96;126508;1285;99423;-75
2022/12/11 08:37:54;;;;;;;77.20;33.00;;;;;;;-1.89;86.42;99067.38;126462;1287;99415;-77
2022/12/11 08:40:57;;;;;;;31.20;17.70;;;;;;;-1.93;86.06;99067.31;126217;1285;99893;-73
2022/12/11 08:44:00;;;;;;;33.60;18.70;;;;;;;-2.03;86.34;99073.58;126478;1300;100890;-79
2022/12/11 08:47:03;;;;;;;56.30;31.50;;;;;;;-2.03;86.74;99080.89;126626;1286;99415;-79
2022/12/11 08:50:06;;;;;;;53.20;26.70;;;;;;;-2.02;86.44;99077.14;126493;1290;99373;-78
2022/12/11 08:53:09;;;;;;;43.20;22.20;;;;;;;-2.06;86.04;99078.98;126443;1277;99351;-78
2022/12/11 08:56:30;;;;;;;33.80;16.90;;;;;;;-2.08;86.24;99071.61;126552;1283;99808;-77
2022/12/11 08:59:33;;;;;;;37.10;19.90;;;;;;;-2.10;86.26;99062.86;126355;1285;100521;-76
2022/12/11 09:02:36;;;;;;;31.50;17.10;;;;;;;-2.10;86.32;99055.56;126473;1286;99372;-77
2022/12/11 09:05:39;;;;;;;32.00;18.00;;;;;;;-2.06;86.26;99055.43;126453;1283;100500;-77
2022/12/11 09:08:42;;;;;;;31.50;18.30;;;;;;;-1.95;86.28;99054.02;126458;1284;99460;-77
2022/12/11 09:11:45;;;;;;;29.50;15.50;;;;;;;-1.84;85.97;99046.67;126495;1285;99411;-76
2022/12/11 09:14:47;;;;;;;30.80;17.00;;;;;;;-1.83;85.30;99041.53;126429;1292;99414;-76
2022/12/11 09:17:50;;;;;;;33.80;16.90;;;;;;;-1.88;85.33;99043.81;126495;1276;99544;-76
2022/12/11 09:20:59;;;;;;;30.40;16.90;;;;;;;-1.97;85.41;99044.55;126503;1293;99546;-76
2022/12/11 09:24:02;;;;;;;28.70;14.90;;;;;;;-2.04;85.90;99033.22;126680;1284;99442;-77
2022/12/11 09:27:06;;;;;;;25.10;12.60;;;;;;;-2.07;86.17;99022.98;126717;1287;99368;-78
2022/12/11 09:30:09;;;;;;;31.60;15.50;;;;;;;-2.05;86.37;99014.23;126504;1287;99371;-77
2022/12/11 09:33:12;;;;;;;31.50;15.50;;;;;;;-2.04;86.39;99014.36;126652;1290;99489;-78
2022/12/11 09:36:15;;;;;;;32.80;14.60;;;;;;;-2.04;86.12;99016.42;126359;1287;99376;-75
2022/12/11 09:39:18;;;;;;;23.60;11.40;;;;;;;-2.07;85.88;99019.28;126310;1277;99436;-82
2022/12/11 09:42:29;;;;;;;23.40;11.20;;;;;;;-2.13;85.84;99017.45;126225;1288;99544;-75
2022/12/11 09:45:32;;;;;;;22.50;10.50;;;;;;;-2.12;86.29;99011.28;126276;1277;100104;-77
2022/12/11 09:48:35;;;;;;;22.30;10.80;;;;;;;-2.10;85.98;99007.79;126336;1286;100496;-74
2022/12/11 09:51:45;;;;;;;22.00;10.90;;;;;;;-2.06;86.37;99010.15;126318;1286;99331;-74
2022/12/11 09:54:52;;;;;;;21.20;11.80;;;;;;;-1.99;86.18;99004.63;126421;1286;99368;-82
2022/12/11 09:58:04;;;;;;;20.60;10.70;;;;;;;-1.95;85.65;99001.77;127145;1287;99378;-84
2022/12/11 10:01:14;;;;;;;22.40;11.30;;;;;;;-1.94;85.85;98993.86;126668;1295;99338;-84
2022/12/11 10:04:31;;;;;;;20.80;10.60;;;;;;;-1.93;85.57;98987.83;126699;1277;99435;-79
2022/12/11 10:07:43;;;;;;;19.90;10.30;;;;;;;-1.99;85.54;98986.69;126489;1284;99403;-79
2022/12/11 10:10:55;;;;;;;18.40;8.70;;;;;;;-1.92;85.66;98986.58;126522;1277;99986;-82
2022/12/11 10:14:06;;;;;;;19.10;10.00;;;;;;;-1.84;85.21;98978.89;126740;1283;99328;-83
2022/12/11 10:17:13;;;;;;;21.80;10.20;;;;;;;-1.87;85.01;98967.17;126646;1286;99646;-83
2022/12/11 10:20:22;;;;;;;27.90;12.50;;;;;;;-1.90;85.42;98968.64;126737;1295;99316;-81
2022/12/11 10:23:34;;;;;;;20.60;10.30;;;;;;;-2.02;85.92;98967.34;126685;1301;99367;-81
2022/12/11 10:26:38;;;;;;;19.70;9.80;;;;;;;-2.08;86.87;98962.71;126288;1286;99349;-80
2022/12/11 10:29:41;;;;;;;20.50;9.00;;;;;;;-2.11;87.04;98958.36;126381;1287;100387;-81
2022/12/11 10:32:57;;;;;;;23.20;10.70;;;;;;;-2.13;86.89;98954.52;126326;1285;99682;-81
2022/12/11 10:36:00;;;;;;;20.90;10.20;;;;;;;-2.11;88.09;98953.53;126630;1278;99363;-83
2022/12/11 10:39:11;;;;;;;24.30;12.00;;;;;;;-2.10;87.86;98946.65;126592;1283;99420;-82
2022/12/11 10:42:18;;;;;;;29.70;15.50;;;;;;;-2.20;87.45;98948.00;126498;1301;99393;-80
2022/12/11 10:45:21;;;;;;;28.10;13.80;;;;;;;-2.29;87.85;98952.46;126372;1292;99370;-77
2022/12/11 10:48:24;;;;;;;54.70;33.50;;;;;;;-2.34;88.25;98947.95;126452;1292;100493;-83
2022/12/11 10:51:36;;;;;;;46.20;26.10;;;;;;;-2.28;88.83;98942.80;126524;1284;99354;-82
2022/12/11 10:54:41;;;;;;;26.60;13.00;;;;;;;-2.19;88.16;98934.03;126411;1285;99511;-81
2022/12/11 10:57:45;;;;;;;25.20;13.60;;;;;;;-2.23;87.11;98931.35;126704;1284;100483;-77
2022/12/11 11:00:58;;;;;;;45.90;28.30;;;;;;;-2.26;87.17;98932.07;126700;1292;99687;-79
2022/12/11 11:04:05;;;;;;;29.70;14.70;;;;;;;-2.28;87.05;98926.82;126574;1299;99771;-82
2022/12/11 11:07:13;;;;;;;28.10;14.10;;;;;;;-2.32;86.77;98928.13;126660;1285;100495;-77
2022/12/11 11:10:18;;;;;;;28.60;14.90;;;;;;;-2.30;86.92;98913.02;126670;1285;99367;-83
2022/12/11 11:13:22;;;;;;;33.40;17.00;;;;;;;-2.24;87.10;98912.27;126707;1285;100522;-83
2022/12/11 11:16:25;;;;;;;53.20;22.90;;;;;;;-2.25;86.63;98907.43;126548;1292;100427;-79
2022/12/11 11:19:31;;;;;;;32.30;16.40;;;;;;;-2.31;86.93;98907.35;126443;1287;99865;-78
2022/12/11 11:22:40;;;;;;;35.80;19.00;;;;;;;-2.43;87.60;98904.30;126283;1285;99341;-77
2022/12/11 11:25:51;;;;;;;33.90;18.00;;;;;;;-2.54;87.87;98902.95;126338;1292;99363;-78
2022/12/11 11:28:56;;;;;;;33.60;18.00;;;;;;;-2.48;88.24;98901.69;126280;1285;99352;-77
2022/12/11 11:32:13;;;;;;;33.20;18.60;;;;;;;-2.42;87.65;98896.54;126387;1289;99436;-79
2022/12/11 11:35:19;;;;;;;38.60;23.10;;;;;;;-2.48;87.51;98896.27;126286;1301;99439;-80
2022/12/11 11:38:25;;;;;;;26.70;13.60;;;;;;;-2.46;87.19;98888.51;126520;1284;99716;-77
2022/12/11 11:41:36;;;;;;;26.50;12.90;;;;;;;-2.49;86.82;98881.92;126324;1291;99378;-79
2022/12/11 11:44:46;;;;;;;24.30;12.40;;;;;;;-2.56;87.31;98882.05;126374;1290;100401;-82
2022/12/11 11:47:58;;;;;;;32.10;17.30;;;;;;;-2.53;87.31;98876.42;126551;1277;99925;-81
2022/12/11 11:51:10;;;;;;;30.10;17.10;;;;;;;-2.53;86.84;98876.61;126474;1283;99370;-81
2022/12/11 11:54:28;;;;;;;33.70;16.50;;;;;;;-2.47;87.52;98874.59;126603;1284;99335;-79
2022/12/11 11:57:41;;;;;;;28.10;14.50;;;;;;;-2.42;87.31;98869.02;126464;1281;99800;-81
2022/12/11 12:00:44;;;;;;;29.60;15.00;;;;;;;-2.41;86.93;98864.98;126442;1296;99370;-82
2022/12/11 12:03:48;;;;;;;27.80;14.50;;;;;;;-2.51;86.77;98871.60;126450;1294;99422;-83
2022/12/11 12:07:03;;;;;;;30.00;16.10;;;;;;;-2.56;86.91;98870.48;126528;1285;100493;-78
2022/12/11 12:10:20;;;;;;;25.10;12.40;;;;;;;-2.58;86.94;98873.96;126530;1285;100496;-84
2022/12/11 12:13:29;;;;;;;32.40;16.30;;;;;;;-2.57;87.43;98868.15;126624;1300;99360;-84
2022/12/11 12:16:40;;;;;;;27.60;15.00;;;;;;;-2.56;87.25;98866.66;126495;1292;99342;-81
2022/12/11 12:19:49;;;;;;;32.70;17.40;;;;;;;-2.59;87.74;98865.00;126612;1293;100601;-84
2022/12/11 12:23:02;;;;;;;33.20;16.10;;;;;;;-2.64;87.90;98864.48;126599;1290;100447;-83
2022/12/11 12:26:14;;;;;;;24.80;14.00;;;;;;;-2.64;87.74;98862.35;126558;1301;99431;-84
2022/12/11 12:29:24;;;;;;;26.60;14.00;;;;;;;-2.61;88.09;98857.27;126503;1293;99334;-83
2022/12/11 12:32:37;;;;;;;27.00;14.10;;;;;;;-2.60;87.81;98862.60;126523;1286;99368;-82
2022/12/11 12:35:48;;;;;;;31.30;16.20;;;;;;;-2.66;87.77;98865.48;126542;1301;99375;-85
2022/12/11 12:38:54;;;;;;;33.30;17.00;;;;;;;-2.72;88.04;98870.03;126486;1301;100511;-82
2022/12/11 12:42:04;;;;;;;38.50;19.20;;;;;;;-2.76;87.79;98867.54;126955;1284;100384;-80
2022/12/11 12:45:16;;;;;;;30.90;18.50;;;;;;;-2.81;88.75;98859.31;126728;1284;99348;-82
2022/12/11 12:48:19;;;;;;;;;;;;;;;-2.69;89.67;98850.52;126572;1284;100505;-88
2022/12/11 12:51:22;;;;;;;31.10;15.40;;;;;;;-2.65;88.98;98845.02;126537;1294;100487;-88
2022/12/11 12:54:28;;;;;;;29.40;13.00;;;;;;;-2.68;88.57;98843.30;126702;1284;100493;-84
2022/12/11 12:57:32;;;;;;;24.00;12.20;;;;;;;-2.71;88.09;98840.27;126484;1294;99365;-77
2022/12/11 13:00:36;;;;;;;25.00;12.10;;;;;;;-2.72;88.53;98838.77;126647;1286;99339;-84
2022/12/11 13:03:53;;;;;;;24.90;13.70;;;;;;;-2.76;88.50;98836.50;126742;1290;99346;-82
2022/12/11 13:06:56;;;;;;;71.40;39.20;;;;;;;-2.74;88.66;98831.55;126548;1284;99779;-81
2022/12/11 13:10:03;;;;;;;50.70;28.90;;;;;;;-2.67;88.98;98826.01;126609;1299;99348;-80
2022/12/11 13:13:21;;;;;;;36.20;16.90;;;;;;;-2.67;88.64;98825.48;126572;1290;99381;-80
2022/12/11 13:16:34;;;;;;;28.10;13.50;;;;;;;-2.67;88.43;98826.02;126528;1286;100527;-81
2022/12/11 13:19:37;;;;;;;35.00;17.70;;;;;;;-2.64;88.76;98823.91;126732;1294;100525;-80
2022/12/11 13:22:54;;;;;;;39.50;19.60;;;;;;;-2.58;88.44;98830.77;126670;1300;99370;-82
2022/12/11 13:25:59;;;;;;;41.70;20.20;;;;;;;-2.59;88.31;98828.73;125752;1293;99432;-84
2022/12/11 13:29:01;;;;;;;37.90;19.00;;;;;;;-2.56;88.53;98825.06;126488;1295;99362;-82
2022/12/11 13:32:22;;;;;;;33.70;17.90;;;;;;;-2.58;88.43;98828.00;126494;1293;99894;-84
2022/12/11 13:35:25;;;;;;;30.00;15.70;;;;;;;-2.62;87.92;98831.39;126542;1301;99468;-83
2022/12/11 13:38:28;;;;;;;31.80;15.60;;;;;;;-2.62;88.07;98835.41;126318;1301;99360;-83
2022/12/11 13:41:35;;;;;;;38.00;19.40;;;;;;;-2.61;88.04;98832.37;126169;1294;100403;-83
2022/12/11 13:44:41;;;;;;;36.00;20.10;;;;;;;-2.64;87.87;98830.16;126597;1285;100400;-83
2022/12/11 13:47:45;;;;;;;34.90;16.80;;;;;;;-2.67;87.85;98826.73;126738;1293;99373;-82
2022/12/11 13:50:50;;;;;;;33.00;16.70;;;;;;;-2.73;87.74;98824.31;126579;1301;99344;-83
2022/12/11 13:54:14;;;;;;;31.90;16.50;;;;;;;-2.80;88.28;98818.69;126616;1294;99434;-85
2022/12/11 13:57:20;;;;;;;37.80;17.90;;;;;;;-2.81;88.26;98819.63;126403;1294;99585;-82
2022/12/11 14:00:26;;;;;;;30.30;16.10;;;;;;;-2.82;88.27;98822.28;126464;1292;99843;-82
2022/12/11 14:03:30;;;;;;;32.20;16.70;;;;;;;-2.85;88.24;98824.98;126484;1283;100401;-83
2022/12/11 14:06:36;;;;;;;32.40;16.40;;;;;;;-2.90;88.38;98829.45;126651;1285;100410;-79
2022/12/11 14:09:44;;;;;;;33.70;17.90;;;;;;;-2.92;88.69;98828.04;126386;1277;99351;-83
2022/12/11 14:12:52;;;;;;;34.40;17.90;;;;;;;-2.99;88.72;98830.77;126297;1287;99347;-81